Time,TemperatureF,DewpointF,PressureIn,WindDirection,WindDirectionDegrees,WindSpeedMPH,WindSpeedGustMPH,Humidity,HourlyPrecipIn,Conditions,Clouds,dailyrainin,SolarRadiationWatts/m^2,SoftwareType,DateUTC
2013-06-22 00:11:00,76.3,71.0,30.10,SE,145,0.0,4.0,84,0.00,,,0.00,0,weatherlink.com 1.10,2013-06-22 05:11:00,
2013-06-22 00:26:00,75.8,71.0,30.10,ESE,120,0.0,2.0,85,0.00,,,0.00,0,weatherlink.com 1.10,2013-06-22 05:26:00,
2013-06-22 00:42:00,75.3,71.0,30.09,SE,129,1.0,3.0,86,0.00,,,0.00,0,weatherlink.com 1.10,2013-06-22 05:42:00,
2013-06-22 00:57:00,75.1,71.0,30.08,ESE,116,1.0,5.0,86,0.00,,,0.00,0,weatherlink.com 1.10,2013-06-22 05:57:00,
2013-06-22 01:12:00,75.1,70.0,30.08,SE,131,1.0,5.0,85,0.00,,,0.00,0,weatherlink.com 1.10,2013-06-22 06:12:00,
2013-06-22 01:27:00,74.9,70.0,30.07,SE,142,1.0,3.0,85,0.00,,,0.00,0,weatherlink.com 1.10,2013-06-22 06:27:00,
2013-06-22 01:42:00,74.7,70.0,30.07,SSE,147,0.0,3.0,85,0.00,,,0.00,0,weatherlink.com 1.10,2013-06-22 06:42:00,
2013-06-22 01:57:00,74.6,70.0,30.07,SE,137,2.0,4.0,85,0.00,,,0.00,0,weatherlink.com 1.10,2013-06-22 06:57:00,
2013-06-22 02:12:00,74.3,70.0,30.07,SE,137,0.0,3.0,85,0.00,,,0.00,0,weatherlink.com 1.10,2013-06-22 07:12:00,
2013-06-22 02:27:00,73.9,69.0,30.08,SE,137,0.0,1.0,85,0.00,,,0.00,0,weatherlink.com 1.10,2013-06-22 07:27:00,
2013-06-22 02:42:00,73.1,69.0,30.07,SE,137,0.0,1.0,86,0.00,,,0.00,0,weatherlink.com 1.10,2013-06-22 07:42:00,
2013-06-22 02:57:00,72.9,69.0,30.07,SE,137,0.0,2.0,87,0.00,,,0.00,0,weatherlink.com 1.10,2013-06-22 07:57:00,
2013-06-22 03:12:00,72.9,69.0,30.06,SSE,162,1.0,3.0,87,0.00,,,0.00,0,weatherlink.com 1.10,2013-06-22 08:12:00,
2013-06-22 03:27:00,72.7,69.0,30.06,SSE,166,1.0,4.0,88,0.00,,,0.00,0,weatherlink.com 1.10,2013-06-22 08:27:00,
2013-06-22 03:42:00,72.5,69.0,30.07,SSE,166,0.0,3.0,87,0.00,,,0.00,0,weatherlink.com 1.10,2013-06-22 08:42:00,
2013-06-22 03:57:00,72.3,69.0,30.07,SSE,166,2.0,3.0,88,0.00,,,0.00,0,weatherlink.com 1.10,2013-06-22 08:57:00,
2013-06-22 04:12:00,72.2,68.0,30.07,SSE,166,0.0,1.0,87,0.00,,,0.00,0,weatherlink.com 1.10,2013-06-22 09:12:00,
2013-06-22 04:27:00,71.7,68.0,30.07,SSE,166,0.0,3.0,88,0.00,,,0.00,0,weatherlink.com 1.10,2013-06-22 09:27:00,
2013-06-22 04:42:00,71.1,68.0,30.08,SSE,166,0.0,0.0,89,0.00,,,0.00,0,weatherlink.com 1.10,2013-06-22 09:42:00,
2013-06-22 04:57:00,71.0,68.0,30.08,SSE,166,0.0,1.0,90,0.00,,,0.00,0,weatherlink.com 1.10,2013-06-22 09:57:00,
2013-06-22 05:14:00,70.8,68.0,30.08,SSE,166,0.0,1.0,91,0.00,,,0.00,0,weatherlink.com 1.10,2013-06-22 10:14:00,
2013-06-22 05:28:00,70.7,68.0,30.08,SSE,166,0.0,2.0,91,0.00,,,0.00,0,weatherlink.com 1.10,2013-06-22 10:28:00,
2013-06-22 05:43:00,70.8,68.0,30.08,SSE,166,1.0,2.0,90,0.00,,,0.00,0,weatherlink.com 1.10,2013-06-22 10:43:00,
2013-06-22 05:59:00,71.0,68.0,30.09,SSE,162,2.0,3.0,90,0.00,,,0.00,11,weatherlink.com 1.10,2013-06-22 10:59:00,
2013-06-22 06:13:00,71.0,68.0,30.08,West,259,0.0,3.0,90,0.00,,,0.00,21,weatherlink.com 1.10,2013-06-22 11:13:00,
2013-06-22 06:28:00,71.3,68.0,30.09,SE,125,1.0,4.0,89,0.00,,,0.00,32,weatherlink.com 1.10,2013-06-22 11:28:00,
2013-06-22 06:45:00,71.8,69.0,30.09,SE,125,1.0,2.0,89,0.00,,,0.00,90,weatherlink.com 1.10,2013-06-22 11:45:00,
2013-06-22 07:00:00,73.0,69.0,30.10,SE,133,1.0,3.0,87,0.00,,,0.00,134,weatherlink.com 1.10,2013-06-22 12:00:00,
2013-06-22 07:15:00,74.0,70.0,30.10,SSE,159,2.0,5.0,86,0.00,,,0.00,185,weatherlink.com 1.10,2013-06-22 12:15:00,
2013-06-22 07:30:00,74.7,70.0,30.11,South,186,3.0,6.0,84,0.00,,,0.00,234,weatherlink.com 1.10,2013-06-22 12:30:00,
2013-06-22 07:45:00,75.4,70.0,30.11,SE,137,1.0,5.0,84,0.00,,,0.00,279,weatherlink.com 1.10,2013-06-22 12:45:00,
2013-06-22 08:00:00,76.4,71.0,30.12,SE,124,2.0,5.0,82,0.00,,,0.00,325,weatherlink.com 1.10,2013-06-22 13:00:00,
2013-06-22 08:15:00,77.1,71.0,30.12,SE,144,3.0,8.0,80,0.00,,,0.00,374,weatherlink.com 1.10,2013-06-22 13:15:00,
2013-06-22 08:30:00,77.8,70.0,30.12,South,173,3.0,9.0,78,0.00,,,0.00,417,weatherlink.com 1.10,2013-06-22 13:30:00,
2013-06-22 08:46:00,78.6,70.0,30.13,SE,134,5.0,8.0,76,0.00,,,0.00,480,weatherlink.com 1.10,2013-06-22 13:46:00,
2013-06-22 09:00:00,79.8,71.0,30.13,SSE,162,6.0,7.0,75,0.00,,,0.00,473,weatherlink.com 1.10,2013-06-22 14:00:00,
2013-06-22 09:17:00,80.7,72.0,30.13,South,170,4.0,7.0,75,0.00,,,0.00,555,weatherlink.com 1.10,2013-06-22 14:17:00,
2013-06-22 09:32:00,81.5,72.0,30.13,South,178,4.0,7.0,72,0.00,,,0.00,599,weatherlink.com 1.10,2013-06-22 14:32:00,
2013-06-22 09:47:00,82.2,73.0,30.13,SE,128,1.0,6.0,73,0.00,,,0.00,657,weatherlink.com 1.10,2013-06-22 14:47:00,
2013-06-22 10:02:00,83.2,73.0,30.13,SSE,166,2.0,7.0,71,0.00,,,0.00,696,weatherlink.com 1.10,2013-06-22 15:02:00,
2013-06-22 10:17:00,83.4,73.0,30.13,South,180,4.0,10.0,70,0.00,,,0.00,684,weatherlink.com 1.10,2013-06-22 15:17:00,
2013-06-22 10:32:00,83.6,72.0,30.13,SSW,197,5.0,9.0,69,0.00,,,0.00,673,weatherlink.com 1.10,2013-06-22 15:32:00,
2013-06-22 10:47:00,84.1,72.0,30.13,South,178,5.0,9.0,67,0.00,,,0.00,735,weatherlink.com 1.10,2013-06-22 15:47:00,
2013-06-22 11:03:00,84.7,73.0,30.13,SSW,196,5.0,10.0,67,0.00,,,0.00,874,weatherlink.com 1.10,2013-06-22 16:03:00,
2013-06-22 11:18:00,85.3,72.0,30.12,SSE,163,5.0,10.0,64,0.00,,,0.00,900,weatherlink.com 1.10,2013-06-22 16:18:00,
2013-06-22 11:33:00,85.6,72.0,30.12,ESE,109,4.0,9.0,63,0.00,,,0.00,891,weatherlink.com 1.10,2013-06-22 16:33:00,
2013-06-22 11:49:00,86.1,73.0,30.13,SSE,153,4.0,9.0,64,0.00,,,0.00,998,weatherlink.com 1.10,2013-06-22 16:49:00,
2013-06-22 12:05:00,86.6,72.0,30.12,South,177,3.0,7.0,61,0.00,,,0.00,977,weatherlink.com 1.10,2013-06-22 17:05:00,
2013-06-22 12:20:00,86.7,69.0,30.12,South,190,2.0,9.0,56,0.00,,,0.00,214,weatherlink.com 1.10,2013-06-22 17:20:00,
2013-06-22 12:35:00,86.8,71.0,30.12,ESE,103,5.0,8.0,60,0.00,,,0.00,925,weatherlink.com 1.10,2013-06-22 17:35:00,
2013-06-22 12:50:00,86.9,70.0,30.12,SSW,201,6.0,9.0,58,0.00,,,0.00,905,weatherlink.com 1.10,2013-06-22 17:50:00,
2013-06-22 13:05:00,87.3,72.0,30.11,SE,133,4.0,8.0,61,0.00,,,0.00,974,weatherlink.com 1.10,2013-06-22 18:05:00,
2013-06-22 13:20:00,87.8,73.0,30.11,SSE,168,2.0,10.0,61,0.00,,,0.00,967,weatherlink.com 1.10,2013-06-22 18:20:00,
2013-06-22 13:35:00,87.5,72.0,30.11,SSW,202,6.0,12.0,60,0.00,,,0.00,946,weatherlink.com 1.10,2013-06-22 18:35:00,
2013-06-22 13:50:00,88.1,70.0,30.10,SSE,160,7.0,9.0,56,0.00,,,0.00,932,weatherlink.com 1.10,2013-06-22 18:50:00,
2013-06-22 14:05:00,88.0,71.0,30.10,SW,216,6.0,11.0,57,0.00,,,0.00,930,weatherlink.com 1.10,2013-06-22 19:05:00,
2013-06-22 14:21:00,87.9,69.0,30.09,SE,127,2.0,10.0,54,0.00,,,0.00,911,weatherlink.com 1.10,2013-06-22 19:21:00,
2013-06-22 14:37:00,87.7,70.0,30.08,SSE,155,7.0,13.0,55,0.00,,,0.00,879,weatherlink.com 1.10,2013-06-22 19:37:00,
2013-06-22 14:51:00,88.2,69.0,30.08,SSE,164,4.0,10.0,53,0.00,,,0.00,851,weatherlink.com 1.10,2013-06-22 19:51:00,
2013-06-22 15:07:00,88.6,69.0,30.07,South,176,4.0,10.0,52,0.00,,,0.00,817,weatherlink.com 1.10,2013-06-22 20:07:00,
2013-06-22 15:21:00,88.7,70.0,30.06,South,174,5.0,8.0,54,0.00,,,0.00,809,weatherlink.com 1.10,2013-06-22 20:21:00,
2013-06-22 15:36:00,88.0,69.0,30.05,South,180,5.0,10.0,54,0.00,,,0.00,759,weatherlink.com 1.10,2013-06-22 20:36:00,
2013-06-22 15:51:00,88.6,69.0,30.04,SE,128,7.0,9.0,53,0.00,,,0.00,714,weatherlink.com 1.10,2013-06-22 20:51:00,
2013-06-22 16:08:00,88.4,69.0,30.04,SSW,201,2.0,9.0,53,0.00,,,0.00,684,weatherlink.com 1.10,2013-06-22 21:08:00,
2013-06-22 16:23:00,88.4,69.0,30.03,SSE,153,5.0,10.0,53,0.00,,,0.00,111,weatherlink.com 1.10,2013-06-22 21:23:00,
2013-06-22 16:38:00,88.6,69.0,30.02,SSE,149,6.0,10.0,52,0.00,,,0.00,575,weatherlink.com 1.10,2013-06-22 21:38:00,
2013-06-22 16:53:00,88.6,69.0,30.02,SSE,167,1.0,8.0,53,0.00,,,0.00,526,weatherlink.com 1.10,2013-06-22 21:53:00,
2013-06-22 17:08:00,88.0,69.0,30.02,SSE,157,8.0,10.0,54,0.00,,,0.00,476,weatherlink.com 1.10,2013-06-22 22:08:00,
2013-06-22 17:23:00,88.4,69.0,30.01,ESE,122,4.0,9.0,53,0.00,,,0.00,446,weatherlink.com 1.10,2013-06-22 22:23:00,
2013-06-22 17:39:00,87.6,68.0,30.01,South,182,3.0,10.0,53,0.00,,,0.00,169,weatherlink.com 1.10,2013-06-22 22:39:00,
2013-06-22 17:54:00,87.6,69.0,30.01,SSE,157,4.0,7.0,55,0.00,,,0.00,84,weatherlink.com 1.10,2013-06-22 22:54:00,
2013-06-22 18:10:00,87.7,70.0,30.00,South,175,5.0,8.0,55,0.00,,,0.00,318,weatherlink.com 1.10,2013-06-22 23:10:00,
2013-06-22 18:25:00,87.2,70.0,30.00,SSE,158,3.0,7.0,57,0.00,,,0.00,241,weatherlink.com 1.10,2013-06-22 23:25:00,
2013-06-22 18:40:00,86.9,70.0,30.00,SSE,166,2.0,10.0,58,0.00,,,0.00,186,weatherlink.com 1.10,2013-06-22 23:40:00,
2013-06-22 18:55:00,86.4,70.0,30.01,SSE,162,2.0,8.0,59,0.00,,,0.00,135,weatherlink.com 1.10,2013-06-22 23:55:00,
2013-06-22 19:10:00,86.1,70.0,30.02,SE,141,1.0,5.0,59,0.00,,,0.00,97,weatherlink.com 1.10,2013-06-23 00:10:00,
2013-06-22 19:26:00,85.5,70.0,30.02,SE,140,0.0,5.0,61,0.00,,,0.00,62,weatherlink.com 1.10,2013-06-23 00:26:00,
2013-06-22 19:40:00,84.8,70.0,30.02,SE,140,0.0,2.0,62,0.00,,,0.00,33,weatherlink.com 1.10,2013-06-23 00:40:00,
2013-06-22 19:56:00,83.8,71.0,30.03,SE,140,0.0,1.0,65,0.00,,,0.00,14,weatherlink.com 1.10,2013-06-23 00:56:00,
2013-06-22 20:12:00,82.6,71.0,30.03,SE,140,0.0,1.0,68,0.00,,,0.00,0,weatherlink.com 1.10,2013-06-23 01:12:00,
2013-06-22 20:27:00,81.6,71.0,30.04,SE,140,0.0,0.0,69,0.00,,,0.00,0,weatherlink.com 1.10,2013-06-23 01:27:00,
2013-06-22 20:42:00,80.4,71.0,30.03,SE,140,0.0,1.0,73,0.00,,,0.00,0,weatherlink.com 1.10,2013-06-23 01:42:00,
2013-06-22 20:57:00,79.4,70.0,30.04,SE,140,0.0,0.0,74,0.00,,,0.00,0,weatherlink.com 1.10,2013-06-23 01:57:00,
2013-06-22 21:11:00,78.9,70.0,30.04,SE,140,0.0,1.0,74,0.00,,,0.00,0,weatherlink.com 1.10,2013-06-23 02:11:00,
2013-06-22 21:27:00,78.6,70.0,30.04,SE,140,0.0,1.0,75,0.00,,,0.00,0,weatherlink.com 1.10,2013-06-23 02:27:00,
2013-06-22 21:43:00,78.2,70.0,30.05,SE,140,0.0,1.0,75,0.00,,,0.00,0,weatherlink.com 1.10,2013-06-23 02:43:00,
2013-06-22 21:58:00,77.8,70.0,30.05,SE,140,0.0,1.0,76,0.00,,,0.00,0,weatherlink.com 1.10,2013-06-23 02:58:00,
2013-06-22 22:13:00,77.4,70.0,30.05,SE,140,1.0,2.0,77,0.00,,,0.00,0,weatherlink.com 1.10,2013-06-23 03:13:00,
2013-06-22 22:28:00,77.4,70.0,30.06,SE,140,0.0,2.0,77,0.00,,,0.00,0,weatherlink.com 1.10,2013-06-23 03:28:00,
2013-06-22 22:42:00,77.5,69.0,30.07,SE,140,0.0,2.0,76,0.00,,,0.00,0,weatherlink.com 1.10,2013-06-23 03:42:00,
2013-06-22 22:58:00,77.1,69.0,30.06,SE,140,0.0,2.0,77,0.00,,,0.00,0,weatherlink.com 1.10,2013-06-23 03:58:00,
2013-06-22 23:12:00,76.9,70.0,30.06,SE,140,0.0,2.0,78,0.00,,,0.00,0,weatherlink.com 1.10,2013-06-23 04:12:00,
2013-06-22 23:28:00,76.5,69.0,30.06,SE,140,1.0,3.0,78,0.00,,,0.00,0,weatherlink.com 1.10,2013-06-23 04:28:00,
2013-06-22 23:43:00,76.5,69.0,30.06,SE,140,0.0,3.0,77,0.00,,,0.00,0,weatherlink.com 1.10,2013-06-23 04:43:00,
2013-06-22 23:58:00,76.2,69.0,30.06,SE,140,1.0,3.0,77,0.00,,,0.00,0,weatherlink.com 1.10,2013-06-23 04:58:00,